sensor_id;sensor_type;location;lat;lon;timestamp;pressure;altitude;pressure_sealevel;temperature;humidity
16613;BME280;8419;52.358;9.752;2023-02-19T00:00:09;100777.00;;;19.61;41.94
16613;BME280;8419;52.358;9.752;2023-02-19T00:02:55;100774.00;;;19.61;42.00
16613;BME280;8419;52.358;9.752;2023-02-19T00:05:41;100769.00;;;19.66;41.89
16613;BME280;8419;52.358;9.752;2023-02-19T00:08:29;100773.00;;;19.65;41.92
16613;BME280;8419;52.358;9.752;2023-02-19T00:11:17;100764.00;;;19.64;41.94
16613;BME280;8419;52.358;9.752;2023-02-19T00:14:04;100775.00;;;19.67;41.97
16613;BME280;8419;52.358;9.752;2023-02-19T00:16:49;100772.00;;;19.72;41.92
16613;BME280;8419;52.358;9.752;2023-02-19T00:19:35;100761.00;;;19.76;41.86
16613;BME280;8419;52.358;9.752;2023-02-19T00:22:22;100746.00;;;19.77;41.88
16613;BME280;8419;52.358;9.752;2023-02-19T00:25:08;100737.00;;;19.78;41.88
16613;BME280;8419;52.358;9.752;2023-02-19T00:27:53;100734.00;;;19.81;41.85
16613;BME280;8419;52.358;9.752;2023-02-19T00:30:39;100733.00;;;19.98;41.56
16613;BME280;8419;52.358;9.752;2023-02-19T00:33:25;100738.00;;;20.01;41.56
16613;BME280;8419;52.358;9.752;2023-02-19T00:36:13;100741.00;;;20.00;41.55
16613;BME280;8419;52.358;9.752;2023-02-19T00:38:59;100741.00;;;20.06;41.48
16613;BME280;8419;52.358;9.752;2023-02-19T00:41:46;100733.00;;;20.03;41.54
16613;BME280;8419;52.358;9.752;2023-02-19T00:44:31;100725.00;;;20.00;41.55
16613;BME280;8419;52.358;9.752;2023-02-19T00:47:16;100723.00;;;20.02;41.51
16613;BME280;8419;52.358;9.752;2023-02-19T00:50:02;100709.00;;;19.92;41.67
16613;BME280;8419;52.358;9.752;2023-02-19T00:52:48;100709.00;;;20.00;41.52
16613;BME280;8419;52.358;9.752;2023-02-19T00:55:34;100704.00;;;19.94;41.62
16613;BME280;8419;52.358;9.752;2023-02-19T00:58:19;100686.00;;;19.93;41.64
16613;BME280;8419;52.358;9.752;2023-02-19T01:01:06;100688.00;;;19.86;41.81
16613;BME280;8419;52.358;9.752;2023-02-19T01:03:52;100677.00;;;19.81;41.87
16613;BME280;8419;52.358;9.752;2023-02-19T01:06:37;100683.00;;;19.70;42.22
16613;BME280;8419;52.358;9.752;2023-02-19T01:09:23;100679.00;;;19.72;42.19
16613;BME280;8419;52.358;9.752;2023-02-19T01:12:08;100679.00;;;19.64;42.41
16613;BME280;8419;52.358;9.752;2023-02-19T01:14:54;100678.00;;;19.66;42.42
16613;BME280;8419;52.358;9.752;2023-02-19T01:17:39;100688.00;;;19.71;42.33
16613;BME280;8419;52.358;9.752;2023-02-19T01:20:25;100687.00;;;19.63;42.49
16613;BME280;8419;52.358;9.752;2023-02-19T01:23:12;100693.00;;;19.55;42.67
16613;BME280;8419;52.358;9.752;2023-02-19T01:25:58;100709.00;;;19.42;42.93
16613;BME280;8419;52.358;9.752;2023-02-19T01:28:44;100710.00;;;19.36;43.08
16613;BME280;8419;52.358;9.752;2023-02-19T01:31:31;100709.00;;;19.28;43.30
16613;BME280;8419;52.358;9.752;2023-02-19T01:34:17;100713.00;;;19.10;43.63
16613;BME280;8419;52.358;9.752;2023-02-19T01:37:03;100708.00;;;18.89;43.80
16613;BME280;8419;52.358;9.752;2023-02-19T01:39:48;100710.00;;;18.82;43.67
16613;BME280;8419;52.358;9.752;2023-02-19T01:42:34;100708.00;;;18.73;43.60
16613;BME280;8419;52.358;9.752;2023-02-19T01:45:27;100696.00;;;18.56;43.73
16613;BME280;8419;52.358;9.752;2023-02-19T01:48:15;100699.00;;;18.47;43.70
16613;BME280;8419;52.358;9.752;2023-02-19T01:51:06;100696.00;;;18.45;43.54
16613;BME280;8419;52.358;9.752;2023-02-19T01:53:56;100707.00;;;18.41;43.55
16613;BME280;8419;52.358;9.752;2023-02-19T01:56:45;100680.00;;;18.32;43.44
16613;BME280;8419;52.358;9.752;2023-02-19T01:59:33;100683.00;;;18.12;43.70
16613;BME280;8419;52.358;9.752;2023-02-19T02:02:19;100667.00;;;18.04;43.75
16613;BME280;8419;52.358;9.752;2023-02-19T02:05:10;100673.00;;;18.06;43.65
16613;BME280;8419;52.358;9.752;2023-02-19T02:08:02;100660.00;;;17.96;43.77
16613;BME280;8419;52.358;9.752;2023-02-19T02:11:06;100662.00;;;17.87;43.84
16613;BME280;8419;52.358;9.752;2023-02-19T02:13:52;100666.00;;;17.76;44.00
16613;BME280;8419;52.358;9.752;2023-02-19T02:16:44;100664.00;;;17.88;43.76
16613;BME280;8419;52.358;9.752;2023-02-19T02:19:50;100659.00;;;17.78;44.14
16613;BME280;8419;52.358;9.752;2023-02-19T02:22:45;100658.00;;;17.74;44.47
16613;BME280;8419;52.358;9.752;2023-02-19T02:25:47;100668.00;;;17.65;44.84
16613;BME280;8419;52.358;9.752;2023-02-19T02:29:01;100660.00;;;17.69;44.93
16613;BME280;8419;52.358;9.752;2023-02-19T02:31:53;100659.00;;;17.67;45.13
16613;BME280;8419;52.358;9.752;2023-02-19T02:34:47;100649.00;;;17.66;45.29
16613;BME280;8419;52.358;9.752;2023-02-19T02:37:36;100642.00;;;17.73;45.16
16613;BME280;8419;52.358;9.752;2023-02-19T02:40:23;100651.00;;;17.72;45.36
16613;BME280;8419;52.358;9.752;2023-02-19T02:43:09;100652.00;;;17.80;45.31
16613;BME280;8419;52.358;9.752;2023-02-19T02:45:56;100661.00;;;17.76;45.54
16613;BME280;8419;52.358;9.752;2023-02-19T02:48:45;100661.00;;;17.73;45.78
16613;BME280;8419;52.358;9.752;2023-02-19T02:51:46;100648.00;;;17.82;45.82
16613;BME280;8419;52.358;9.752;2023-02-19T02:54:34;100648.00;;;17.91;45.81
16613;BME280;8419;52.358;9.752;2023-02-19T02:57:38;100649.00;;;17.92;45.98
16613;BME280;8419;52.358;9.752;2023-02-19T03:00:25;100644.00;;;18.02;45.96
16613;BME280;8419;52.358;9.752;2023-02-19T03:04:59;100641.00;;;18.06;46.08
16613;BME280;8419;52.358;9.752;2023-02-19T03:11:12;100635.00;;;18.37;46.48
16613;BME280;8419;52.358;9.752;2023-02-19T03:14:20;100630.00;;;18.30;46.54
16613;BME280;8419;52.358;9.752;2023-02-19T03:17:28;100637.00;;;18.38;46.47
16613;BME280;8419;52.358;9.752;2023-02-19T03:20:39;100632.00;;;18.42;46.52
16613;BME280;8419;52.358;9.752;2023-02-19T03:23:28;100651.00;;;18.50;46.49
16613;BME280;8419;52.358;9.752;2023-02-19T03:26:37;100654.00;;;18.49;46.55
16613;BME280;8419;52.358;9.752;2023-02-19T03:29:27;100673.00;;;18.54;46.28
16613;BME280;8419;52.358;9.752;2023-02-19T03:32:17;100688.00;;;18.50;46.16
16613;BME280;8419;52.358;9.752;2023-02-19T03:35:10;100707.00;;;18.23;46.26
16613;BME280;8419;52.358;9.752;2023-02-19T03:38:01;100700.00;;;18.08;46.37
16613;BME280;8419;52.358;9.752;2023-02-19T03:40:55;100699.00;;;17.94;46.48
16613;BME280;8419;52.358;9.752;2023-02-19T03:43:51;100699.00;;;17.72;46.70
16613;BME280;8419;52.358;9.752;2023-02-19T03:46:44;100706.00;;;17.76;46.41
16613;BME280;8419;52.358;9.752;2023-02-19T03:49:37;100710.00;;;17.69;46.43
16613;BME280;8419;52.358;9.752;2023-02-19T03:52:32;100716.00;;;17.65;46.43
16613;BME280;8419;52.358;9.752;2023-02-19T03:55:26;100722.00;;;17.57;46.58
16613;BME280;8419;52.358;9.752;2023-02-19T03:58:22;100725.00;;;17.52;46.61
16613;BME280;8419;52.358;9.752;2023-02-19T04:01:12;100731.00;;;17.51;46.52
16613;BME280;8419;52.358;9.752;2023-02-19T04:04:05;100733.00;;;17.51;46.53
16613;BME280;8419;52.358;9.752;2023-02-19T04:06:55;100741.00;;;17.45;46.54
16613;BME280;8419;52.358;9.752;2023-02-19T04:09:45;100741.00;;;17.49;46.44
16613;BME280;8419;52.358;9.752;2023-02-19T04:12:33;100739.00;;;17.44;46.45
16613;BME280;8419;52.358;9.752;2023-02-19T04:15:23;100761.00;;;17.40;46.56
16613;BME280;8419;52.358;9.752;2023-02-19T04:18:14;100763.00;;;17.42;46.50
16613;BME280;8419;52.358;9.752;2023-02-19T04:21:02;100768.00;;;17.38;46.45
16613;BME280;8419;52.358;9.752;2023-02-19T04:23:50;100777.00;;;17.32;46.44
16613;BME280;8419;52.358;9.752;2023-02-19T04:26:35;100780.00;;;17.26;46.37
16613;BME280;8419;52.358;9.752;2023-02-19T04:29:21;100788.00;;;17.15;46.53
16613;BME280;8419;52.358;9.752;2023-02-19T04:32:09;100789.00;;;17.13;46.58
16613;BME280;8419;52.358;9.752;2023-02-19T04:34:55;100799.00;;;17.18;46.50
16613;BME280;8419;52.358;9.752;2023-02-19T04:37:40;100803.00;;;17.12;46.54
16613;BME280;8419;52.358;9.752;2023-02-19T04:40:26;100814.00;;;17.04;46.60
16613;BME280;8419;52.358;9.752;2023-02-19T04:43:11;100819.00;;;17.05;46.42
16613;BME280;8419;52.358;9.752;2023-02-19T04:46:00;100813.00;;;17.00;46.47
16613;BME280;8419;52.358;9.752;2023-02-19T04:48:46;100818.00;;;16.95;46.62
16613;BME280;8419;52.358;9.752;2023-02-19T04:51:32;100820.00;;;16.96;46.55
16613;BME280;8419;52.358;9.752;2023-02-19T04:54:17;100850.00;;;16.92;46.49
16613;BME280;8419;52.358;9.752;2023-02-19T04:57:03;100857.00;;;16.83;46.36
16613;BME280;8419;52.358;9.752;2023-02-19T04:59:48;100846.00;;;16.74;46.40
16613;BME280;8419;52.358;9.752;2023-02-19T05:02:35;100855.00;;;16.74;46.41
16613;BME280;8419;52.358;9.752;2023-02-19T05:05:20;100889.00;;;16.85;46.16
16613;BME280;8419;52.358;9.752;2023-02-19T05:08:06;100901.00;;;16.70;46.09
16613;BME280;8419;52.358;9.752;2023-02-19T05:10:51;100886.00;;;16.56;46.11
16613;BME280;8419;52.358;9.752;2023-02-19T05:13:41;100897.00;;;16.50;46.22
16613;BME280;8419;52.358;9.752;2023-02-19T05:16:26;100906.00;;;16.49;46.26
16613;BME280;8419;52.358;9.752;2023-02-19T05:19:13;100898.00;;;16.44;46.41
16613;BME280;8419;52.358;9.752;2023-02-19T05:21:59;100902.00;;;16.44;46.35
16613;BME280;8419;52.358;9.752;2023-02-19T05:24:45;100907.00;;;16.43;46.47
16613;BME280;8419;52.358;9.752;2023-02-19T05:27:30;100913.00;;;16.45;46.47
16613;BME280;8419;52.358;9.752;2023-02-19T05:30:16;100914.00;;;16.44;46.49
16613;BME280;8419;52.358;9.752;2023-02-19T05:33:02;100910.00;;;16.39;46.57
16613;BME280;8419;52.358;9.752;2023-02-19T05:35:49;100904.00;;;16.40;46.54
16613;BME280;8419;52.358;9.752;2023-02-19T05:38:36;100920.00;;;16.37;46.61
16613;BME280;8419;52.358;9.752;2023-02-19T05:41:23;100928.00;;;16.27;46.83
16613;BME280;8419;52.358;9.752;2023-02-19T05:44:10;100935.00;;;16.36;46.44
16613;BME280;8419;52.358;9.752;2023-02-19T05:46:55;100935.00;;;16.35;46.26
16613;BME280;8419;52.358;9.752;2023-02-19T05:49:41;100948.00;;;16.36;46.03
16613;BME280;8419;52.358;9.752;2023-02-19T05:52:27;100955.00;;;16.34;45.95
16613;BME280;8419;52.358;9.752;2023-02-19T05:55:12;100957.00;;;16.21;46.00
16613;BME280;8419;52.358;9.752;2023-02-19T05:57:58;100963.00;;;16.16;46.15
16613;BME280;8419;52.358;9.752;2023-02-19T06:00:44;100975.00;;;16.20;46.10
16613;BME280;8419;52.358;9.752;2023-02-19T06:03:30;100977.00;;;16.18;46.25
16613;BME280;8419;52.358;9.752;2023-02-19T06:06:17;100985.00;;;16.15;46.23
16613;BME280;8419;52.358;9.752;2023-02-19T06:09:04;100995.00;;;16.12;46.30
16613;BME280;8419;52.358;9.752;2023-02-19T06:11:51;100997.00;;;16.00;46.33
16613;BME280;8419;52.358;9.752;2023-02-19T06:14:38;101007.00;;;15.86;46.29
16613;BME280;8419;52.358;9.752;2023-02-19T06:17:24;101028.00;;;15.85;46.35
16613;BME280;8419;52.358;9.752;2023-02-19T06:20:10;101040.00;;;15.93;46.15
16613;BME280;8419;52.358;9.752;2023-02-19T06:22:55;101054.00;;;15.88;46.08
16613;BME280;8419;52.358;9.752;2023-02-19T06:25:41;101060.00;;;15.82;46.13
16613;BME280;8419;52.358;9.752;2023-02-19T06:28:26;101060.00;;;15.71;46.18
16613;BME280;8419;52.358;9.752;2023-02-19T06:31:12;101066.00;;;15.70;46.18
16613;BME280;8419;52.358;9.752;2023-02-19T06:34:03;101067.00;;;15.65;46.31
16613;BME280;8419;52.358;9.752;2023-02-19T06:36:49;101072.00;;;15.67;46.32
16613;BME280;8419;52.358;9.752;2023-02-19T06:39:35;101083.00;;;15.65;46.39
16613;BME280;8419;52.358;9.752;2023-02-19T06:42:20;101086.00;;;15.63;46.38
16613;BME280;8419;52.358;9.752;2023-02-19T06:45:07;101094.00;;;15.58;46.13
16613;BME280;8419;52.358;9.752;2023-02-19T06:47:53;101109.00;;;15.40;46.14
16613;BME280;8419;52.358;9.752;2023-02-19T06:50:39;101119.00;;;15.33;46.32
16613;BME280;8419;52.358;9.752;2023-02-19T06:53:24;101125.00;;;15.39;46.21
16613;BME280;8419;52.358;9.752;2023-02-19T06:56:23;101143.00;;;15.35;46.25
16613;BME280;8419;52.358;9.752;2023-02-19T06:59:11;101137.00;;;15.36;46.31
16613;BME280;8419;52.358;9.752;2023-02-19T07:01:59;101156.00;;;15.51;46.02
16613;BME280;8419;52.358;9.752;2023-02-19T07:04:45;101157.00;;;15.37;45.95
16613;BME280;8419;52.358;9.752;2023-02-19T07:07:30;101164.00;;;15.36;45.92
16613;BME280;8419;52.358;9.752;2023-02-19T07:10:16;101170.00;;;15.38;45.98
16613;BME280;8419;52.358;9.752;2023-02-19T07:13:02;101190.00;;;15.30;46.03
16613;BME280;8419;52.358;9.752;2023-02-19T07:15:48;101194.00;;;15.42;45.87
16613;BME280;8419;52.358;9.752;2023-02-19T07:18:34;101203.00;;;15.28;46.21
16613;BME280;8419;52.358;9.752;2023-02-19T07:21:19;101220.00;;;15.32;45.90
16613;BME280;8419;52.358;9.752;2023-02-19T07:24:06;101221.00;;;15.20;46.04
16613;BME280;8419;52.358;9.752;2023-02-19T07:26:51;101234.00;;;15.26;46.01
16613;BME280;8419;52.358;9.752;2023-02-19T07:29:39;101247.00;;;15.29;45.94
16613;BME280;8419;52.358;9.752;2023-02-19T07:32:25;101251.00;;;15.31;45.85
16613;BME280;8419;52.358;9.752;2023-02-19T07:35:12;101263.00;;;15.38;45.82
16613;BME280;8419;52.358;9.752;2023-02-19T07:37:58;101267.00;;;15.44;45.80
16613;BME280;8419;52.358;9.752;2023-02-19T07:40:50;101272.00;;;15.56;45.80
16613;BME280;8419;52.358;9.752;2023-02-19T07:43:37;101279.00;;;15.67;45.82
16613;BME280;8419;52.358;9.752;2023-02-19T07:46:24;101279.00;;;15.72;45.83
16613;BME280;8419;52.358;9.752;2023-02-19T07:49:10;101289.00;;;15.83;45.69
16613;BME280;8419;52.358;9.752;2023-02-19T07:51:56;101288.00;;;15.85;45.78
16613;BME280;8419;52.358;9.752;2023-02-19T07:54:44;101278.00;;;15.95;45.79
16613;BME280;8419;52.358;9.752;2023-02-19T07:57:30;101289.00;;;16.09;45.62
16613;BME280;8419;52.358;9.752;2023-02-19T08:00:16;101296.00;;;16.18;45.58
16613;BME280;8419;52.358;9.752;2023-02-19T08:03:03;101301.00;;;16.05;45.42
16613;BME280;8419;52.358;9.752;2023-02-19T08:05:50;101315.00;;;15.96;45.42
16613;BME280;8419;52.358;9.752;2023-02-19T08:08:38;101307.00;;;15.90;45.43
16613;BME280;8419;52.358;9.752;2023-02-19T08:11:24;101312.00;;;15.82;45.45
16613;BME280;8419;52.358;9.752;2023-02-19T08:14:29;101321.00;;;15.82;45.57
16613;BME280;8419;52.358;9.752;2023-02-19T08:17:14;101321.00;;;15.86;45.55
16613;BME280;8419;52.358;9.752;2023-02-19T08:20:01;101331.00;;;15.79;45.55
16613;BME280;8419;52.358;9.752;2023-02-19T08:22:50;101335.00;;;15.79;45.59
16613;BME280;8419;52.358;9.752;2023-02-19T08:25:37;101340.00;;;15.74;45.54
16613;BME280;8419;52.358;9.752;2023-02-19T08:28:24;101347.00;;;15.63;45.51
16613;BME280;8419;52.358;9.752;2023-02-19T08:31:11;101337.00;;;15.65;45.65
16613;BME280;8419;52.358;9.752;2023-02-19T08:33:57;101343.00;;;15.69;45.51
16613;BME280;8419;52.358;9.752;2023-02-19T08:36:42;101367.00;;;15.75;45.45
16613;BME280;8419;52.358;9.752;2023-02-19T08:39:28;101370.00;;;15.79;45.36
16613;BME280;8419;52.358;9.752;2023-02-19T08:42:14;101374.00;;;15.82;45.39
16613;BME280;8419;52.358;9.752;2023-02-19T08:44:59;101364.00;;;15.93;45.23
16613;BME280;8419;52.358;9.752;2023-02-19T08:47:45;101363.00;;;15.88;45.51
16613;BME280;8419;52.358;9.752;2023-02-19T08:50:32;101355.00;;;15.93;45.54
16613;BME280;8419;52.358;9.752;2023-02-19T08:53:18;101357.00;;;15.96;45.28
16613;BME280;8419;52.358;9.752;2023-02-19T08:56:05;101363.00;;;15.72;45.56
16613;BME280;8419;52.358;9.752;2023-02-19T08:58:51;101371.00;;;15.58;45.67
16613;BME280;8419;52.358;9.752;2023-02-19T09:01:37;101373.00;;;15.46;45.70
16613;BME280;8419;52.358;9.752;2023-02-19T09:04:23;101369.00;;;15.35;45.80
16613;BME280;8419;52.358;9.752;2023-02-19T09:07:10;101370.00;;;15.34;45.84
16613;BME280;8419;52.358;9.752;2023-02-19T09:09:56;101370.00;;;15.26;45.88
16613;BME280;8419;52.358;9.752;2023-02-19T09:12:42;101385.00;;;15.26;46.07
16613;BME280;8419;52.358;9.752;2023-02-19T09:15:28;101389.00;;;15.34;45.96
16613;BME280;8419;52.358;9.752;2023-02-19T09:18:15;101400.00;;;15.41;46.01
16613;BME280;8419;52.358;9.752;2023-02-19T09:21:02;101413.00;;;15.55;45.80
16613;BME280;8419;52.358;9.752;2023-02-19T09:23:50;101421.00;;;15.66;46.06
16613;BME280;8419;52.358;9.752;2023-02-19T09:26:35;101421.00;;;15.99;45.71
16613;BME280;8419;52.358;9.752;2023-02-19T09:29:23;101416.00;;;16.12;45.34
16613;BME280;8419;52.358;9.752;2023-02-19T09:32:09;101429.00;;;16.13;45.39
16613;BME280;8419;52.358;9.752;2023-02-19T09:34:54;101426.00;;;16.38;45.27
16613;BME280;8419;52.358;9.752;2023-02-19T09:37:40;101430.00;;;16.53;45.16
16613;BME280;8419;52.358;9.752;2023-02-19T09:40:26;101443.00;;;16.73;45.00
16613;BME280;8419;52.358;9.752;2023-02-19T09:43:16;101435.00;;;16.89;44.93
16613;BME280;8419;52.358;9.752;2023-02-19T09:46:08;101440.00;;;17.00;44.96
16613;BME280;8419;52.358;9.752;2023-02-19T09:49:03;101443.00;;;17.07;45.01
16613;BME280;8419;52.358;9.752;2023-02-19T09:51:54;101444.00;;;16.97;44.76
16613;BME280;8419;52.358;9.752;2023-02-19T09:54:41;101456.00;;;16.84;44.74
16613;BME280;8419;52.358;9.752;2023-02-19T09:57:29;101449.00;;;16.93;44.59
16613;BME280;8419;52.358;9.752;2023-02-19T10:00:22;101460.00;;;17.15;44.77
16613;BME280;8419;52.358;9.752;2023-02-19T10:03:13;101475.00;;;17.57;44.47
16613;BME280;8419;52.358;9.752;2023-02-19T10:06:07;101484.00;;;17.73;43.98
16613;BME280;8419;52.358;9.752;2023-02-19T10:09:04;101491.00;;;17.58;44.05
16613;BME280;8419;52.358;9.752;2023-02-19T10:11:57;101498.00;;;17.47;43.93
16613;BME280;8419;52.358;9.752;2023-02-19T10:14:46;101509.00;;;17.41;44.02
16613;BME280;8419;52.358;9.752;2023-02-19T10:17:33;101523.00;;;17.36;43.89
16613;BME280;8419;52.358;9.752;2023-02-19T10:20:21;101521.00;;;17.35;43.74
16613;BME280;8419;52.358;9.752;2023-02-19T10:23:12;101529.00;;;17.43;43.73
16613;BME280;8419;52.358;9.752;2023-02-19T10:25:59;101542.00;;;17.89;43.55
16613;BME280;8419;52.358;9.752;2023-02-19T10:28:45;101557.00;;;18.01;43.13
16613;BME280;8419;52.358;9.752;2023-02-19T10:31:32;101560.00;;;17.71;42.54
16613;BME280;8419;52.358;9.752;2023-02-19T10:34:19;101553.00;;;17.50;42.62
16613;BME280;8419;52.358;9.752;2023-02-19T10:37:12;101566.00;;;17.40;42.36
16613;BME280;8419;52.358;9.752;2023-02-19T10:39:59;101575.00;;;17.34;42.45
16613;BME280;8419;52.358;9.752;2023-02-19T10:42:46;101572.00;;;17.59;42.23
16613;BME280;8419;52.358;9.752;2023-02-19T10:45:38;101570.00;;;17.64;41.90
16613;BME280;8419;52.358;9.752;2023-02-19T10:48:27;101575.00;;;17.75;41.87
16613;BME280;8419;52.358;9.752;2023-02-19T10:51:15;101575.00;;;17.77;41.39
16613;BME280;8419;52.358;9.752;2023-02-19T10:54:15;101576.00;;;17.71;41.18
16613;BME280;8419;52.358;9.752;2023-02-19T10:57:23;101573.00;;;17.75;41.27
16613;BME280;8419;52.358;9.752;2023-02-19T11:00:22;101571.00;;;17.86;41.44
16613;BME280;8419;52.358;9.752;2023-02-19T11:03:19;101579.00;;;17.57;41.03
16613;BME280;8419;52.358;9.752;2023-02-19T11:06:07;101574.00;;;17.59;40.89
16613;BME280;8419;52.358;9.752;2023-02-19T11:08:55;101574.00;;;17.86;40.39
16613;BME280;8419;52.358;9.752;2023-02-19T11:11:42;101581.00;;;18.01;40.24
16613;BME280;8419;52.358;9.752;2023-02-19T11:14:28;101576.00;;;18.07;39.90
16613;BME280;8419;52.358;9.752;2023-02-19T11:17:23;101585.00;;;18.17;40.01
16613;BME280;8419;52.358;9.752;2023-02-19T11:20:14;101589.00;;;18.44;39.86
16613;BME280;8419;52.358;9.752;2023-02-19T11:23:13;101581.00;;;18.86;39.30
16613;BME280;8419;52.358;9.752;2023-02-19T11:26:02;101601.00;;;18.84;38.77
16613;BME280;8419;52.358;9.752;2023-02-19T11:28:55;101601.00;;;18.60;38.68
16613;BME280;8419;52.358;9.752;2023-02-19T11:31:42;101610.00;;;18.26;38.83
16613;BME280;8419;52.358;9.752;2023-02-19T11:34:29;101611.00;;;17.92;39.08
16613;BME280;8419;52.358;9.752;2023-02-19T11:37:16;101604.00;;;17.75;39.18
16613;BME280;8419;52.358;9.752;2023-02-19T11:40:02;101595.00;;;17.98;39.21
16613;BME280;8419;52.358;9.752;2023-02-19T11:42:51;101595.00;;;18.28;38.46
16613;BME280;8419;52.358;9.752;2023-02-19T11:45:49;101603.00;;;18.59;38.05
16613;BME280;8419;52.358;9.752;2023-02-19T11:48:49;101601.00;;;18.93;37.60
16613;BME280;8419;52.358;9.752;2023-02-19T11:51:57;101617.00;;;18.81;37.37
16613;BME280;8419;52.358;9.752;2023-02-19T11:54:51;101611.00;;;18.45;37.71
16613;BME280;8419;52.358;9.752;2023-02-19T11:57:42;101595.00;;;18.30;37.38
16613;BME280;8419;52.358;9.752;2023-02-19T12:00:30;101606.00;;;18.18;37.42
16613;BME280;8419;52.358;9.752;2023-02-19T12:03:35;101600.00;;;18.17;37.25
16613;BME280;8419;52.358;9.752;2023-02-19T12:06:30;101599.00;;;18.32;37.01
16613;BME280;8419;52.358;9.752;2023-02-19T12:09:39;101594.00;;;18.61;36.26
16613;BME280;8419;52.358;9.752;2023-02-19T12:12:40;101588.00;;;18.79;35.77
16613;BME280;8419;52.358;9.752;2023-02-19T12:15:38;101587.00;;;18.85;35.81
16613;BME280;8419;52.358;9.752;2023-02-19T12:18:53;101591.00;;;18.72;35.62
16613;BME280;8419;52.358;9.752;2023-02-19T12:21:59;101593.00;;;18.66;35.63
16613;BME280;8419;52.358;9.752;2023-02-19T12:25:18;101593.00;;;18.47;35.13
16613;BME280;8419;52.358;9.752;2023-02-19T12:28:22;101589.00;;;18.63;35.17
16613;BME280;8419;52.358;9.752;2023-02-19T12:34:35;101599.00;;;19.19;34.15
16613;BME280;8419;52.358;9.752;2023-02-19T12:37:34;101604.00;;;19.17;33.98
16613;BME280;8419;52.358;9.752;2023-02-19T12:40:37;101609.00;;;19.55;33.38
16613;BME280;8419;52.358;9.752;2023-02-19T12:43:25;101608.00;;;20.10;32.95
16613;BME280;8419;52.358;9.752;2023-02-19T12:46:13;101612.00;;;20.62;31.94
16613;BME280;8419;52.358;9.752;2023-02-19T12:49:06;101614.00;;;21.10;31.77
16613;BME280;8419;52.358;9.752;2023-02-19T12:51:56;101614.00;;;21.14;31.18
16613;BME280;8419;52.358;9.752;2023-02-19T12:54:48;101621.00;;;21.27;30.85
16613;BME280;8419;52.358;9.752;2023-02-19T12:57:36;101624.00;;;21.58;30.67
16613;BME280;8419;52.358;9.752;2023-02-19T13:00:32;101624.00;;;21.74;30.08
16613;BME280;8419;52.358;9.752;2023-02-19T13:03:22;101634.00;;;22.16;29.86
16613;BME280;8419;52.358;9.752;2023-02-19T13:06:25;101619.00;;;22.35;29.31
16613;BME280;8419;52.358;9.752;2023-02-19T13:09:19;101626.00;;;22.50;29.07
16613;BME280;8419;52.358;9.752;2023-02-19T13:12:12;101622.00;;;22.12;29.17
16613;BME280;8419;52.358;9.752;2023-02-19T13:15:03;101629.00;;;21.96;29.06
16613;BME280;8419;52.358;9.752;2023-02-19T13:17:52;101630.00;;;21.60;28.61
16613;BME280;8419;52.358;9.752;2023-02-19T13:20:41;101636.00;;;21.05;28.58
16613;BME280;8419;52.358;9.752;2023-02-19T13:23:30;101638.00;;;21.01;28.99
16613;BME280;8419;52.358;9.752;2023-02-19T13:26:49;101648.00;;;20.92;28.49
16613;BME280;8419;52.358;9.752;2023-02-19T13:29:55;101651.00;;;20.97;29.02
16613;BME280;8419;52.358;9.752;2023-02-19T13:32:59;101637.00;;;21.13;28.84
16613;BME280;8419;52.358;9.752;2023-02-19T13:36:10;101629.00;;;21.38;28.90
16613;BME280;8419;52.358;9.752;2023-02-19T13:38:58;101617.00;;;21.54;27.97
16613;BME280;8419;52.358;9.752;2023-02-19T13:41:50;101611.00;;;21.66;27.98
16613;BME280;8419;52.358;9.752;2023-02-19T13:44:38;101620.00;;;21.97;27.89
16613;BME280;8419;52.358;9.752;2023-02-19T13:47:44;101616.00;;;22.25;27.67
16613;BME280;8419;52.358;9.752;2023-02-19T13:50:32;101610.00;;;22.16;27.34
16613;BME280;8419;52.358;9.752;2023-02-19T13:53:49;101605.00;;;21.34;27.71
16613;BME280;8419;52.358;9.752;2023-02-19T13:56:45;101613.00;;;20.86;28.07
16613;BME280;8419;52.358;9.752;2023-02-19T13:59:36;101607.00;;;20.87;28.49
16613;BME280;8419;52.358;9.752;2023-02-19T14:02:31;101604.00;;;21.30;28.22
16613;BME280;8419;52.358;9.752;2023-02-19T14:05:57;101610.00;;;21.70;27.98
16613;BME280;8419;52.358;9.752;2023-02-19T14:08:52;101609.00;;;22.03;27.93
16613;BME280;8419;52.358;9.752;2023-02-19T14:15:40;101606.00;;;22.11;27.70
16613;BME280;8419;52.358;9.752;2023-02-19T14:18:42;101606.00;;;22.06;27.87
16613;BME280;8419;52.358;9.752;2023-02-19T14:21:35;101629.00;;;21.73;27.98
16613;BME280;8419;52.358;9.752;2023-02-19T14:24:21;101629.00;;;21.44;28.24
16613;BME280;8419;52.358;9.752;2023-02-19T14:27:09;101621.00;;;21.12;28.12
16613;BME280;8419;52.358;9.752;2023-02-19T14:29:57;101632.00;;;20.57;28.44
16613;BME280;8419;52.358;9.752;2023-02-19T14:32:43;101637.00;;;20.32;28.46
16613;BME280;8419;52.358;9.752;2023-02-19T14:35:33;101632.00;;;20.26;28.62
16613;BME280;8419;52.358;9.752;2023-02-19T14:38:22;101631.00;;;20.39;28.39
16613;BME280;8419;52.358;9.752;2023-02-19T14:41:13;101632.00;;;20.48;28.50
16613;BME280;8419;52.358;9.752;2023-02-19T14:44:00;101645.00;;;20.54;28.47
16613;BME280;8419;52.358;9.752;2023-02-19T14:46:55;101645.00;;;20.42;28.70
16613;BME280;8419;52.358;9.752;2023-02-19T14:49:44;101653.00;;;20.38;28.87
16613;BME280;8419;52.358;9.752;2023-02-19T14:52:36;101650.00;;;20.32;28.86
16613;BME280;8419;52.358;9.752;2023-02-19T14:55:30;101655.00;;;20.57;28.58
16613;BME280;8419;52.358;9.752;2023-02-19T14:58:22;101647.00;;;20.62;28.54
16613;BME280;8419;52.358;9.752;2023-02-19T15:01:25;101641.00;;;20.75;28.58
16613;BME280;8419;52.358;9.752;2023-02-19T15:04:22;101636.00;;;20.95;28.72
16613;BME280;8419;52.358;9.752;2023-02-19T15:07:20;101640.00;;;21.26;28.50
16613;BME280;8419;52.358;9.752;2023-02-19T15:10:10;101649.00;;;21.34;28.46
16613;BME280;8419;52.358;9.752;2023-02-19T15:13:00;101641.00;;;21.24;28.35